createdAt,value
2024-02-21T00:01:47.861Z,101035.44
2024-02-21T00:04:17.215Z,101030.25
2024-02-21T00:06:46.482Z,101025.50
2024-02-21T00:09:14.656Z,101020.91
2024-02-21T00:11:42.907Z,101014.06
2024-02-21T00:14:11.083Z,101017.66
2024-02-21T00:16:39.306Z,101013.56
2024-02-21T00:19:07.509Z,101008.16
2024-02-21T00:21:35.701Z,101002.78
2024-02-21T00:24:03.895Z,101006.97
2024-02-21T00:26:32.075Z,101002.78
2024-02-21T00:29:00.506Z,100999.75
2024-02-21T00:31:28.766Z,100998.31
2024-02-21T00:33:57.028Z,100993.97
2024-02-21T00:36:25.188Z,100995.63
2024-02-21T00:38:53.381Z,100989.16
2024-02-21T00:41:21.589Z,100992.09
2024-02-21T00:43:51.381Z,100991.50
2024-02-21T00:46:19.690Z,100982.97
2024-02-21T00:48:47.938Z,100982.97
2024-02-21T00:51:16.362Z,100974.66
2024-02-21T00:53:45.093Z,100968.06
2024-02-21T00:56:13.268Z,100967.84
2024-02-21T00:58:41.510Z,100965.38
2024-02-21T01:01:10.308Z,100964.19
2024-02-21T01:03:41.369Z,100968.22
2024-02-21T01:06:09.576Z,100966.78
2024-02-21T01:08:37.918Z,100959.63
2024-02-21T01:11:08.149Z,100960.47
2024-02-21T01:13:36.410Z,100952.38
2024-02-21T01:16:04.624Z,100944.28
2024-02-21T01:18:32.944Z,100944.97
2024-02-21T01:21:01.496Z,100941.00
2024-02-21T01:23:29.835Z,100948.63
2024-02-21T01:25:58.143Z,100944.88
2024-02-21T01:28:26.427Z,100941.94
2024-02-21T01:30:54.622Z,100937.16
2024-02-21T01:33:22.803Z,100936.13
2024-02-21T01:35:51.279Z,100925.47
2024-02-21T01:38:19.582Z,100925.25
2024-02-21T01:40:47.890Z,100920.31
2024-02-21T01:43:21.893Z,100922.41
2024-02-21T01:45:53.081Z,100923.69
2024-02-21T01:48:21.735Z,100920.75
2024-02-21T01:50:53.628Z,100913.16
2024-02-21T01:53:32.582Z,100902.94
2024-02-21T01:56:00.996Z,100908.94
2024-02-21T01:58:30.825Z,100910.81
2024-02-21T02:00:59.889Z,100913.72
2024-02-21T02:03:28.306Z,100903.81
2024-02-21T02:05:56.529Z,100898.06
2024-02-21T02:08:24.871Z,100898.75
2024-02-21T02:10:53.871Z,100893.72
2024-02-21T02:13:22.264Z,100884.44
2024-02-21T02:15:51.328Z,100885.75
2024-02-21T02:18:21.752Z,100877.31
2024-02-21T02:20:50.349Z,100879.56
2024-02-21T02:23:34.014Z,100874.75
2024-02-21T02:26:02.878Z,100869.22
2024-02-21T02:28:31.368Z,100865.72
2024-02-21T02:31:00.147Z,100863.94
2024-02-21T02:33:28.405Z,100854.25
2024-02-21T02:35:56.737Z,100861.63
2024-02-21T02:38:24.922Z,100851.44
2024-02-21T02:40:53.190Z,100845.78
2024-02-21T02:43:21.363Z,100853.16
2024-02-21T02:45:49.665Z,100850.72
2024-02-21T02:48:17.957Z,100839.69
2024-02-21T02:50:46.912Z,100853.88
2024-02-21T02:53:15.132Z,100850.25
2024-02-21T02:55:43.400Z,100855.19
2024-02-21T02:58:11.771Z,100857.41
2024-02-21T03:00:40.682Z,100850.06
2024-02-21T03:03:09.709Z,100847.66
2024-02-21T03:05:38.177Z,100846.50
2024-02-21T03:08:08.295Z,100837.84
2024-02-21T03:10:36.660Z,100843.66
2024-02-21T03:13:06.509Z,100846.97
2024-02-21T03:15:34.739Z,100840.41
2024-02-21T03:18:03.004Z,100841.44
2024-02-21T03:20:31.222Z,100838.75
2024-02-21T03:23:00.265Z,100836.53
2024-02-21T03:25:28.503Z,100839.34
2024-02-21T03:27:56.746Z,100834.78
2024-02-21T03:30:24.905Z,100838.75
2024-02-21T03:32:53.127Z,100844.63
2024-02-21T03:35:21.382Z,100841.69
2024-02-21T03:37:49.682Z,100838.75
2024-02-21T03:40:18.134Z,100837.72
2024-02-21T03:42:46.316Z,100835.59
2024-02-21T03:45:14.582Z,100831.16
2024-02-21T03:47:42.771Z,100843.66
2024-02-21T03:50:11.219Z,100838.06
2024-02-21T03:52:39.574Z,100841.22
2024-02-21T03:55:08.786Z,100842.28
2024-02-21T03:57:37.068Z,100838.41
2024-02-21T04:00:06.686Z,100839.50
2024-02-21T04:02:34.878Z,100841.56
2024-02-21T04:05:13.119Z,100840.53
2024-02-21T04:07:41.688Z,100840.28
2024-02-21T04:10:10.345Z,100847.44
2024-02-21T04:12:39.478Z,100836.19
2024-02-21T04:15:07.958Z,100835.72
2024-02-21T04:17:37.188Z,100833.03
2024-02-21T04:20:08.894Z,100828.34
2024-02-21T04:22:37.521Z,100824.81
2024-02-21T04:25:05.792Z,100832.19
2024-02-21T04:27:34.234Z,100816.72
2024-02-21T04:30:02.574Z,100819.09
2024-02-21T04:32:31.067Z,100808.66
2024-02-21T04:35:00.161Z,100811.94
2024-02-21T04:37:28.568Z,100809.72
2024-02-21T04:39:56.853Z,100798.94
2024-02-21T04:42:25.182Z,100806.44
2024-02-21T04:44:53.534Z,100807.03
2024-02-21T04:47:21.901Z,100799.38
2024-02-21T04:49:50.260Z,100795.66
2024-02-21T04:52:41.926Z,100783.69
2024-02-21T04:55:10.454Z,100787.00
2024-02-21T04:57:38.617Z,100782.41
2024-02-21T05:00:07.889Z,100776.78
2024-02-21T05:02:36.129Z,100780.78
2024-02-21T05:05:04.511Z,100770.22
2024-02-21T05:07:32.726Z,100760.06
2024-02-21T05:10:00.998Z,100749.72
2024-02-21T05:12:30.983Z,100744.34
2024-02-21T05:14:59.170Z,100742.25
2024-02-21T05:17:27.525Z,100738.25
2024-02-21T05:19:55.975Z,100730.63
2024-02-21T05:22:24.505Z,100734.41
2024-02-21T05:24:52.704Z,100735.09
2024-02-21T05:27:21.033Z,100731.00
2024-02-21T05:29:49.409Z,100726.66
2024-02-21T05:32:17.855Z,100729.34
2024-02-21T05:34:46.096Z,100721.88
2024-02-21T05:37:14.339Z,100724.06
2024-02-21T05:39:42.499Z,100719.84
2024-02-21T05:42:10.708Z,100723.50
2024-02-21T05:44:44.693Z,100712.84
2024-02-21T05:47:16.196Z,100722.56
2024-02-21T05:49:44.438Z,100724.44
2024-02-21T05:52:12.706Z,100722.78
2024-02-21T05:54:41.552Z,100719.84
2024-02-21T05:57:10.330Z,100719.66
2024-02-21T05:59:42.965Z,100707.91
2024-02-21T06:02:11.341Z,100709.31
2024-02-21T06:04:40.643Z,100696.56
2024-02-21T06:07:09.161Z,100695.72
2024-02-21T06:09:37.503Z,100688.59
2024-02-21T06:12:05.954Z,100694.94
2024-02-21T06:14:34.173Z,100690.47
2024-02-21T06:17:02.477Z,100693.41
2024-02-21T06:19:30.778Z,100690.09
2024-02-21T06:21:59.043Z,100688.13
2024-02-21T06:24:27.215Z,100681.94
2024-02-21T06:26:55.632Z,100681.56
2024-02-21T06:29:24.916Z,100707.44
2024-02-21T06:31:53.118Z,100718.78
2024-02-21T06:34:21.535Z,100731.06
2024-02-21T06:36:49.758Z,100729.56
2024-02-21T06:39:17.970Z,100730.16
2024-02-21T06:41:46.560Z,100738.56
2024-02-21T06:44:14.756Z,100742.22
2024-02-21T06:46:43.048Z,100752.53
2024-02-21T06:49:16.943Z,100751.00
2024-02-21T06:51:45.390Z,100745.75
2024-02-21T06:54:13.662Z,100761.91
2024-02-21T06:56:42.333Z,100767.28
2024-02-21T06:59:11.622Z,100758.16
2024-02-21T07:01:39.946Z,100764.34
2024-02-21T07:04:08.562Z,100772.69
2024-02-21T07:06:36.863Z,100774.91
2024-02-21T07:09:05.186Z,100784.19
2024-02-21T07:11:33.518Z,100767.53
2024-02-21T07:14:01.893Z,100755.00
2024-02-21T07:16:30.656Z,100762.84
2024-02-21T07:18:59.396Z,100767.19
2024-02-21T07:21:27.663Z,100757.81
2024-02-21T07:23:55.857Z,100768.34
2024-02-21T07:26:24.042Z,100765.22
2024-02-21T07:28:52.444Z,100765.34
2024-02-21T07:31:20.645Z,100761.25
2024-02-21T07:33:48.884Z,100770.03
2024-02-21T07:36:18.388Z,100767.69
2024-02-21T07:38:46.573Z,100778.34
2024-02-21T07:41:14.774Z,100770.84
2024-02-21T07:43:42.983Z,100767.34
2024-02-21T07:46:11.173Z,100758.84
2024-02-21T07:48:39.417Z,100751.84
2024-02-21T07:51:07.589Z,100751.03
2024-02-21T07:53:35.877Z,100743.31
2024-02-21T07:56:04.179Z,100736.63
2024-02-21T07:58:32.469Z,100735.22
2024-02-21T08:01:00.678Z,100731.47
2024-02-21T08:03:29.539Z,100725.09
2024-02-21T08:05:57.916Z,100710.44
2024-02-21T08:08:26.171Z,100696.69
2024-02-21T08:10:54.540Z,100697.69
2024-02-21T08:13:22.982Z,100694.94
2024-02-21T08:15:51.181Z,100703.94
2024-02-21T08:18:19.518Z,100698.56
2024-02-21T08:20:47.892Z,100696.75
2024-02-21T08:23:18.616Z,100698.06
2024-02-21T08:25:46.976Z,100684.28
2024-02-21T08:28:15.865Z,100679.19
2024-02-21T08:30:49.514Z,100680.94
2024-02-21T08:33:18.674Z,100682.50
2024-02-21T08:35:47.103Z,100689.84
2024-02-21T08:38:15.492Z,100691.47
2024-02-21T08:40:43.770Z,100686.81
2024-02-21T08:43:12.017Z,100690.16
2024-02-21T08:45:40.305Z,100701.59
2024-02-21T08:48:09.295Z,100697.41
2024-02-21T08:50:37.851Z,100702.91
2024-02-21T08:53:06.503Z,100688.00
2024-02-21T08:55:36.745Z,100690.47
2024-02-21T08:58:05.703Z,100686.63
2024-02-21T09:00:34.117Z,100690.28
2024-02-21T09:03:02.423Z,100691.22
2024-02-21T09:05:30.932Z,100699.91
2024-02-21T09:07:59.329Z,100693.00
2024-02-21T09:10:27.542Z,100699.41
2024-02-21T09:12:55.765Z,100682.38
2024-02-21T09:15:25.419Z,100701.75
2024-02-21T09:17:52.727Z,100706.34
2024-02-21T09:20:21.125Z,100708.56
2024-02-21T09:22:49.436Z,100707.31
2024-02-21T09:25:18.349Z,100689.78
2024-02-21T09:27:47.385Z,100689.41
2024-02-21T09:30:15.778Z,100697.66
2024-02-21T09:32:44.161Z,100695.16
2024-02-21T09:35:13.783Z,100694.78
2024-02-21T09:37:42.450Z,100696.56
2024-02-21T09:40:11.086Z,100699.44
2024-02-21T09:42:40.150Z,100690.81
2024-02-21T09:45:17.698Z,100690.66
2024-02-21T09:48:14.263Z,100695.75
2024-02-21T09:50:43.154Z,100699.00
2024-02-21T09:53:14.264Z,100697.53
2024-02-21T09:55:42.888Z,100695.34
2024-02-21T09:58:11.612Z,100684.88
2024-02-21T10:00:39.864Z,100682.44
2024-02-21T10:03:10.932Z,100680.44
2024-02-21T10:05:40.343Z,100680.03
2024-02-21T10:08:08.912Z,100684.38
2024-02-21T10:10:45.577Z,100675.78
2024-02-21T10:13:30.238Z,100673.50
2024-02-21T10:16:10.884Z,100664.34
2024-02-21T10:18:39.242Z,100658.34
2024-02-21T10:21:09.339Z,100667.00
2024-02-21T10:23:48.265Z,100667.38
2024-02-21T10:26:17.910Z,100672.59
2024-02-21T10:28:48.104Z,100671.47
2024-02-21T10:31:29.844Z,100663.00
2024-02-21T10:33:58.869Z,100657.69
2024-02-21T10:36:27.601Z,100654.03
2024-02-21T10:38:56.337Z,100656.63
2024-02-21T10:41:25.446Z,100646.84
2024-02-21T10:43:56.141Z,100644.16
2024-02-21T10:46:26.887Z,100648.72
2024-02-21T10:49:24.753Z,100647.06
2024-02-21T10:52:06.064Z,100649.84
2024-02-21T10:54:47.222Z,100649.56
2024-02-21T10:57:16.132Z,100640.69
2024-02-21T10:59:46.375Z,100633.97
2024-02-21T11:02:14.777Z,100632.03
2024-02-21T11:04:43.422Z,100621.22
2024-02-21T11:07:12.346Z,100620.50
2024-02-21T11:09:40.659Z,100613.22
2024-02-21T11:12:09.791Z,100617.34
2024-02-21T11:14:42.726Z,100605.00
2024-02-21T11:17:27.146Z,100598.75
2024-02-21T11:19:55.636Z,100601.78
2024-02-21T11:22:30.281Z,100596.53
2024-02-21T11:25:12.670Z,100584.00
2024-02-21T11:27:40.919Z,100569.56
2024-02-21T11:30:10.474Z,100565.03
2024-02-21T11:32:38.746Z,100558.25
2024-02-21T11:35:08.702Z,100553.91
2024-02-21T11:37:38.894Z,100551.19
2024-02-21T11:40:10.590Z,100544.72
2024-02-21T11:42:38.811Z,100533.13
2024-02-21T11:45:09.980Z,100528.88
2024-02-21T11:47:40.166Z,100526.84
2024-02-21T11:50:13.953Z,100521.16
2024-02-21T11:52:43.543Z,100508.09
2024-02-21T11:55:12.041Z,100507.69
2024-02-21T11:57:44.024Z,100499.47
2024-02-21T12:00:17.474Z,100499.06
2024-02-21T12:02:46.557Z,100502.59
2024-02-21T12:05:15.038Z,100498.47
2024-02-21T12:07:43.803Z,100503.88
2024-02-21T12:10:15.405Z,100485.13
2024-02-21T12:12:43.825Z,100474.31
2024-02-21T12:15:12.076Z,100476.72
2024-02-21T12:17:41.887Z,100467.34
2024-02-21T12:20:11.709Z,100465.44
2024-02-21T12:22:46.322Z,100460.56
2024-02-21T12:25:21.177Z,100455.16
2024-02-21T12:27:50.230Z,100456.75
2024-02-21T12:30:18.920Z,100450.00
2024-02-21T12:32:47.424Z,100448.22
2024-02-21T12:35:15.809Z,100441.16
2024-02-21T12:37:44.085Z,100436.91
2024-02-21T12:40:14.431Z,100429.59
2024-02-21T12:42:43.180Z,100438.19
2024-02-21T12:45:11.347Z,100426.00
2024-02-21T12:47:41.152Z,100424.06
2024-02-21T12:50:09.619Z,100419.09
2024-02-21T12:52:38.136Z,100407.09
2024-02-21T12:55:06.705Z,100411.34
2024-02-21T12:57:34.849Z,100397.38
2024-02-21T13:00:03.024Z,100394.50
2024-02-21T13:02:31.421Z,100377.50
2024-02-21T13:05:01.674Z,100375.84
2024-02-21T13:07:32.508Z,100366.63
2024-02-21T13:10:00.909Z,100365.88
2024-02-21T13:12:30.558Z,100357.50
2024-02-21T13:14:58.763Z,100347.31
2024-02-21T13:17:31.629Z,100341.09
2024-02-21T13:20:01.145Z,100329.16
2024-02-21T13:22:29.526Z,100328.41
2024-02-21T13:24:58.774Z,100317.59
2024-02-21T13:27:27.469Z,100331.69
2024-02-21T13:29:55.669Z,100316.28
2024-02-21T13:32:23.910Z,100304.63
2024-02-21T13:34:53.542Z,100306.53
2024-02-21T13:37:22.766Z,100305.69
2024-02-21T13:39:51.039Z,100297.53
2024-02-21T13:42:20.214Z,100306.16
2024-02-21T13:44:48.876Z,100296.47
2024-02-21T13:47:17.296Z,100293.72
2024-02-21T13:49:45.954Z,100293.72
2024-02-21T13:52:14.144Z,100293.16
2024-02-21T13:54:43.009Z,100287.78
2024-02-21T13:57:10.321Z,100301.28
2024-02-21T13:59:38.488Z,100291.31
2024-02-21T14:02:08.255Z,100283.72
2024-02-21T14:04:36.816Z,100286.13
2024-02-21T14:07:05.155Z,100290.47
2024-02-21T14:09:34.077Z,100282.31
2024-02-21T14:12:02.684Z,100275.88
2024-02-21T14:14:30.848Z,100271.53
2024-02-21T14:16:59.794Z,100261.00
2024-02-21T14:19:28.099Z,100271.59
2024-02-21T14:21:56.258Z,100264.81
2024-02-21T14:24:24.811Z,100267.81
2024-02-21T14:26:53.031Z,100262.88
2024-02-21T14:29:22.046Z,100260.72
2024-02-21T14:31:50.328Z,100256.91
2024-02-21T14:34:18.608Z,100259.59
2024-02-21T14:36:46.820Z,100252.00
2024-02-21T14:39:15.024Z,100253.34
2024-02-21T14:41:44.564Z,100250.91
2024-02-21T14:44:12.872Z,100243.84
2024-02-21T14:46:41.222Z,100237.09
2024-02-21T14:49:09.470Z,100223.31
2024-02-21T14:51:37.753Z,100222.22
2024-02-21T14:54:05.971Z,100217.91
2024-02-21T14:56:34.190Z,100208.94
2024-02-21T14:59:08.901Z,100206.50
2024-02-21T15:01:43.417Z,100191.88
2024-02-21T15:04:11.864Z,100184.31
2024-02-21T15:06:40.635Z,100180.25
2024-02-21T15:09:09.350Z,100172.41
2024-02-21T15:11:41.650Z,100161.00
2024-02-21T15:14:10.314Z,100159.38
2024-02-21T15:16:38.879Z,100162.09
2024-02-21T15:19:07.770Z,100149.69
2024-02-21T15:21:36.325Z,100137.22
2024-02-21T15:24:04.733Z,100137.22
2024-02-21T15:26:32.972Z,100133.97
2024-02-21T15:29:01.285Z,100119.09
2024-02-21T15:31:30.733Z,100117.72
2024-02-21T15:33:59.113Z,100111.78
2024-02-21T15:36:29.435Z,100109.59
2024-02-21T15:38:59.656Z,100117.97
2024-02-21T15:41:28.029Z,100109.59
2024-02-21T15:43:57.797Z,100102.84
2024-02-21T15:46:26.309Z,100106.31
2024-02-21T15:48:55.373Z,100112.28
2024-02-21T15:51:24.491Z,100101.97
2024-02-21T15:53:53.358Z,100103.56
2024-02-21T15:56:22.061Z,100096.53
2024-02-21T15:58:50.312Z,100090.06
2024-02-21T16:01:18.627Z,100081.94
2024-02-21T16:03:46.938Z,100083.84
2024-02-21T16:06:20.874Z,100073.28
2024-02-21T16:08:51.438Z,100063.25
2024-02-21T16:11:19.905Z,100063.25
2024-02-21T16:13:49.296Z,100061.38
2024-02-21T16:16:18.241Z,100053.50
2024-02-21T16:18:47.776Z,100056.19
2024-02-21T16:21:16.274Z,100057.50
2024-02-21T16:23:44.494Z,100049.69
2024-02-21T16:26:13.544Z,100041.00
2024-02-21T16:28:42.195Z,100048.81
2024-02-21T16:31:13.413Z,100052.06
2024-02-21T16:33:42.040Z,100049.91
2024-02-21T16:36:10.298Z,100045.28
2024-02-21T16:38:41.028Z,100039.00
2024-02-21T16:41:11.277Z,100042.25
2024-02-21T16:43:39.931Z,100033.84
2024-02-21T16:46:08.589Z,100035.69
2024-02-21T16:48:36.787Z,100027.59
2024-02-21T16:51:06.139Z,100027.56
2024-02-21T16:53:35.295Z,100034.56
2024-02-21T16:56:04.282Z,100035.06
2024-02-21T16:58:41.612Z,100043.69
2024-02-21T17:01:13.804Z,100038.28
2024-02-21T17:03:43.349Z,100022.34
2024-02-21T17:06:16.735Z,100015.06
2024-02-21T17:08:48.043Z,100016.69
2024-02-21T17:11:17.224Z,100003.00
2024-02-21T17:13:45.844Z,99999.97
2024-02-21T17:16:14.231Z,99986.47
2024-02-21T17:18:42.536Z,99986.41
2024-02-21T17:21:10.976Z,99976.66
2024-02-21T17:23:39.116Z,99976.13
2024-02-21T17:26:08.252Z,99966.34
2024-02-21T17:28:36.731Z,99965.25
2024-02-21T17:31:05.860Z,99951.19
2024-02-21T17:33:34.109Z,99949.03
2024-02-21T17:36:02.804Z,99947.94
2024-02-21T17:38:31.125Z,99939.78
2024-02-21T17:40:59.541Z,99935.22
2024-02-21T17:43:30.393Z,99926.88
2024-02-21T17:46:02.598Z,99918.81
2024-02-21T17:48:31.037Z,99922.03
2024-02-21T17:50:59.675Z,99916.66
2024-02-21T17:53:27.772Z,99919.69
2024-02-21T17:55:57.345Z,99904.56
2024-02-21T17:58:28.177Z,99902.41
2024-02-21T18:00:58.762Z,99907.81
2024-02-21T18:03:29.985Z,99901.88
2024-02-21T18:06:03.691Z,99917.81
2024-02-21T18:08:33.545Z,99908.09
2024-02-21T18:11:02.306Z,99915.63
2024-02-21T18:13:32.039Z,99916.19
2024-02-21T18:16:09.810Z,99909.94
2024-02-21T18:18:39.352Z,99904.28
2024-02-21T18:21:08.036Z,99916.19
2024-02-21T18:23:38.074Z,99908.34
2024-02-21T18:26:06.467Z,99898.09
2024-02-21T18:28:35.115Z,99892.69
2024-02-21T18:31:04.191Z,99889.19
2024-02-21T18:33:32.358Z,99895.19
2024-02-21T18:36:00.536Z,99885.72
2024-02-21T18:38:30.069Z,99883.81
2024-02-21T18:40:58.305Z,99877.59
2024-02-21T18:43:26.514Z,99878.66
2024-02-21T18:45:54.704Z,99877.06
2024-02-21T18:48:22.986Z,99881.66
2024-02-21T18:50:51.497Z,99888.66
2024-02-21T18:53:19.789Z,99874.91
2024-02-21T18:55:48.080Z,99878.66
2024-02-21T18:58:16.554Z,99882.69
2024-02-21T19:00:44.747Z,99881.59
2024-02-21T19:03:13.416Z,99878.09
2024-02-21T19:05:41.430Z,99874.06
2024-02-21T19:08:09.825Z,99876.78
2024-02-21T19:10:38.193Z,99865.41
2024-02-21T19:13:07.051Z,99867.03
2024-02-21T19:15:36.079Z,99860.03
2024-02-21T19:18:04.431Z,99853.31
2024-02-21T19:20:32.608Z,99848.97
2024-02-21T19:23:01.157Z,99842.78
2024-02-21T19:25:29.347Z,99836.28
2024-02-21T19:27:57.557Z,99833.03
2024-02-21T19:30:27.298Z,99821.44
2024-02-21T19:32:55.524Z,99816.28
2024-02-21T19:35:23.789Z,99809.00
2024-02-21T19:37:52.302Z,99803.06
2024-02-21T19:40:20.564Z,99803.34
2024-02-21T19:42:48.764Z,99792.00
2024-02-21T19:45:18.707Z,99788.50
2024-02-21T19:47:46.967Z,99780.13
2024-02-21T19:50:21.040Z,99774.47
2024-02-21T19:52:50.014Z,99772.03
2024-02-21T19:55:18.759Z,99762.88
2024-02-21T19:57:47.445Z,99750.47
2024-02-21T20:00:16.089Z,99752.09
2024-02-21T20:02:44.747Z,99744.50
2024-02-21T20:05:13.798Z,99733.72
2024-02-21T20:07:43.370Z,99734.28
2024-02-21T20:10:12.838Z,99728.88
2024-02-21T20:12:44.041Z,99713.50
2024-02-21T20:15:12.355Z,99714.03
2024-02-21T20:17:43.302Z,99714.84
2024-02-21T20:20:13.074Z,99709.72
2024-02-21T20:22:43.229Z,99701.38
2024-02-21T20:25:11.763Z,99712.72
2024-02-21T20:27:39.949Z,99700.56
2024-02-21T20:30:08.666Z,99710.53
2024-02-21T20:32:37.277Z,99708.69
2024-02-21T20:35:07.207Z,99704.34
2024-02-21T20:37:35.635Z,99687.88
2024-02-21T20:40:07.643Z,99695.44
2024-02-21T20:42:35.939Z,99689.50
2024-02-21T20:45:04.273Z,99684.13
2024-02-21T20:47:32.694Z,99681.69
2024-02-21T20:50:00.976Z,99679.81
2024-02-21T20:52:29.377Z,99683.56
2024-02-21T20:54:57.640Z,99670.06
2024-02-21T20:57:25.811Z,99680.88
2024-02-21T20:59:53.990Z,99670.06
2024-02-21T21:02:22.183Z,99662.53
2024-02-21T21:04:53.990Z,99667.94
2024-02-21T21:07:22.869Z,99662.53
2024-02-21T21:09:51.182Z,99667.94
2024-02-21T21:12:19.434Z,99672.00
2024-02-21T21:14:47.889Z,99663.59
2024-02-21T21:17:16.246Z,99669.28
2024-02-21T21:19:44.738Z,99666.03
2024-02-21T21:22:12.984Z,99661.72
2024-02-21T21:24:41.687Z,99658.22
2024-02-21T21:27:12.721Z,99659.84
2024-02-21T21:29:41.553Z,99654.19
2024-02-21T21:32:10.375Z,99644.47
2024-02-21T21:34:39.235Z,99643.91
2024-02-21T21:37:07.535Z,99637.44
2024-02-21T21:39:35.706Z,99626.91
2024-02-21T21:42:06.321Z,99626.91
2024-02-21T21:44:34.727Z,99623.16
2024-02-21T21:47:02.959Z,99625.56
2024-02-21T21:49:33.609Z,99620.97
2024-02-21T21:52:01.818Z,99618.28
2024-02-21T21:54:29.948Z,99625.84
2024-02-21T21:56:58.117Z,99614.50
2024-02-21T21:59:26.317Z,99607.25
2024-02-21T22:01:56.136Z,99596.44
2024-02-21T22:04:25.036Z,99598.88
2024-02-21T22:06:53.341Z,99588.06
2024-02-21T22:09:21.785Z,99590.78
2024-02-21T22:11:50.091Z,99590.22
2024-02-21T22:14:18.434Z,99577.00
2024-02-21T22:16:46.624Z,99585.91
2024-02-21T22:19:14.874Z,99573.50
2024-02-21T22:21:43.055Z,99570.53
2024-02-21T22:24:11.929Z,99564.06
2024-02-21T22:26:40.427Z,99554.88
2024-02-21T22:29:08.956Z,99539.50
2024-02-21T22:31:37.306Z,99547.31
2024-02-21T22:34:05.533Z,99536.53
2024-02-21T22:36:33.738Z,99534.91
2024-02-21T22:39:02.632Z,99523.84
2024-02-21T22:41:31.952Z,99525.47
2024-02-21T22:44:00.237Z,99521.13
2024-02-21T22:46:28.461Z,99513.59
2024-02-21T22:48:56.688Z,99512.25
2024-02-21T22:51:24.932Z,99503.31
2024-02-21T22:53:53.335Z,99501.97
2024-02-21T22:56:21.597Z,99490.09
2024-02-21T22:58:50.328Z,99488.22
2024-02-21T23:01:18.804Z,99480.09
2024-02-21T23:03:47.288Z,99468.78
2024-02-21T23:06:16.136Z,99469.56
2024-02-21T23:08:44.376Z,99458.75
2024-02-21T23:11:12.625Z,99459.84
2024-02-21T23:13:41.072Z,99452.28
2024-02-21T23:16:09.297Z,99444.44
2024-02-21T23:18:37.892Z,99444.44
2024-02-21T23:21:07.492Z,99449.31
2024-02-21T23:23:35.761Z,99434.72
2024-02-21T23:26:03.980Z,99425.56
2024-02-21T23:28:32.307Z,99410.16
2024-02-21T23:31:00.520Z,99419.31
2024-02-21T23:33:34.959Z,99413.09
2024-02-21T23:36:06.889Z,99412.50
2024-02-21T23:38:35.512Z,99406.50
2024-02-21T23:41:03.807Z,99391.03
2024-02-21T23:43:32.858Z,99389.66
2024-02-21T23:46:01.062Z,99391.72
2024-02-21T23:48:29.297Z,99373.91
2024-02-21T23:50:57.516Z,99363.09
2024-02-21T23:53:25.915Z,99361.97
2024-02-21T23:55:56.154Z,99353.88
2024-02-21T23:58:24.475Z,99343.06
